sensor_id;sensor_type;location;lat;lon;timestamp;pressure;altitude;pressure_sealevel;temperature;humidity
81812;BME280;71243;51.848;5.768;2024-03-22T00:00:24;102172.63;;;12.01;91.33
81812;BME280;71243;51.848;5.768;2024-03-22T00:02:49;102170.94;;;12.00;91.36
81812;BME280;71243;51.848;5.768;2024-03-22T00:05:14;102175.63;;;12.08;90.99
81812;BME280;71243;51.848;5.768;2024-03-22T00:07:39;102175.75;;;12.06;91.01
81812;BME280;71243;51.848;5.768;2024-03-22T00:10:08;102176.94;;;12.13;91.28
81812;BME280;71243;51.848;5.768;2024-03-22T00:12:33;102167.75;;;12.18;91.30
81812;BME280;71243;51.848;5.768;2024-03-22T00:14:58;102169.56;;;12.17;90.96
81812;BME280;71243;51.848;5.768;2024-03-22T00:17:23;102165.03;;;12.08;91.91
81812;BME280;71243;51.848;5.768;2024-03-22T00:19:49;102158.97;;;12.17;91.29
81812;BME280;71243;51.848;5.768;2024-03-22T00:22:14;102145.38;;;12.10;92.08
81812;BME280;71243;51.848;5.768;2024-03-22T00:24:39;102149.47;;;12.14;91.97
81812;BME280;71243;51.848;5.768;2024-03-22T00:27:05;102138.28;;;12.11;92.24
81812;BME280;71243;51.848;5.768;2024-03-22T00:29:30;102128.53;;;12.11;92.31
81812;BME280;71243;51.848;5.768;2024-03-22T00:31:55;102136.66;;;12.20;92.17
81812;BME280;71243;51.848;5.768;2024-03-22T00:34:20;102125.13;;;12.21;92.20
81812;BME280;71243;51.848;5.768;2024-03-22T00:36:46;102119.09;;;12.19;92.74
81812;BME280;71243;51.848;5.768;2024-03-22T00:39:11;102109.81;;;12.24;92.33
81812;BME280;71243;51.848;5.768;2024-03-22T00:41:36;102102.94;;;12.22;92.53
81812;BME280;71243;51.848;5.768;2024-03-22T00:44:01;102097.91;;;12.19;92.82
81812;BME280;71243;51.848;5.768;2024-03-22T00:46:27;102092.84;;;12.15;93.35
81812;BME280;71243;51.848;5.768;2024-03-22T00:48:52;102086.47;;;12.18;93.05
81812;BME280;71243;51.848;5.768;2024-03-22T00:51:17;102087.50;;;12.27;92.75
81812;BME280;71243;51.848;5.768;2024-03-22T00:53:42;102080.53;;;12.26;92.72
81812;BME280;71243;51.848;5.768;2024-03-22T00:56:07;102080.00;;;12.32;92.35
81812;BME280;71243;51.848;5.768;2024-03-22T00:58:33;102075.81;;;12.29;92.76
81812;BME280;71243;51.848;5.768;2024-03-22T01:00:58;102073.59;;;12.34;92.88
81812;BME280;71243;51.848;5.768;2024-03-22T01:03:23;102077.41;;;12.41;92.17
81812;BME280;71243;51.848;5.768;2024-03-22T01:14:57;102057.16;;;12.40;92.40
81812;BME280;71243;51.848;5.768;2024-03-22T01:17:23;102065.13;;;12.40;92.23
81812;BME280;71243;51.848;5.768;2024-03-22T01:19:48;102067.47;;;12.34;92.45
81812;BME280;71243;51.848;5.768;2024-03-22T01:22:13;102051.09;;;12.49;91.92
81812;BME280;71243;51.848;5.768;2024-03-22T01:24:38;102047.72;;;12.47;92.00
81812;BME280;71243;51.848;5.768;2024-03-22T01:27:04;102043.91;;;12.40;92.42
81812;BME280;71243;51.848;5.768;2024-03-22T01:29:29;102038.38;;;12.43;92.05
81812;BME280;71243;51.848;5.768;2024-03-22T01:31:54;102036.38;;;12.36;92.67
81812;BME280;71243;51.848;5.768;2024-03-22T01:34:19;102044.44;;;12.34;92.68
81812;BME280;71243;51.848;5.768;2024-03-22T01:36:44;102033.31;;;12.40;92.22
81812;BME280;71243;51.848;5.768;2024-03-22T01:39:10;102042.69;;;12.44;92.28
81812;BME280;71243;51.848;5.768;2024-03-22T01:41:35;102034.03;;;12.42;91.92
81812;BME280;71243;51.848;5.768;2024-03-22T01:44:00;102030.94;;;12.37;92.66
81812;BME280;71243;51.848;5.768;2024-03-22T01:46:25;102024.41;;;12.41;91.98
81812;BME280;71243;51.848;5.768;2024-03-22T01:48:51;102023.69;;;12.39;92.41
81812;BME280;71243;51.848;5.768;2024-03-22T01:51:17;102031.50;;;12.41;92.26
81812;BME280;71243;51.848;5.768;2024-03-22T01:53:43;102036.53;;;12.44;91.74
81812;BME280;71243;51.848;5.768;2024-03-22T01:56:08;102034.00;;;12.33;92.54
81812;BME280;71243;51.848;5.768;2024-03-22T01:58:34;102026.47;;;12.38;92.47
81812;BME280;71243;51.848;5.768;2024-03-22T02:00:59;102027.38;;;12.48;92.08
81812;BME280;71243;51.848;5.768;2024-03-22T02:03:24;102034.22;;;12.30;92.86
81812;BME280;71243;51.848;5.768;2024-03-22T02:05:50;102022.53;;;12.32;92.70
81812;BME280;71243;51.848;5.768;2024-03-22T02:08:15;102019.97;;;12.42;92.07
81812;BME280;71243;51.848;5.768;2024-03-22T02:10:40;102024.41;;;12.41;92.22
81812;BME280;71243;51.848;5.768;2024-03-22T02:13:06;102016.84;;;12.37;92.29
81812;BME280;71243;51.848;5.768;2024-03-22T02:15:31;102017.94;;;12.34;92.52
81812;BME280;71243;51.848;5.768;2024-03-22T02:17:56;102015.03;;;12.37;92.57
81812;BME280;71243;51.848;5.768;2024-03-22T02:20:21;102013.81;;;12.41;92.59
81812;BME280;71243;51.848;5.768;2024-03-22T02:22:47;102003.59;;;12.37;92.95
81812;BME280;71243;51.848;5.768;2024-03-22T02:25:12;101992.88;;;12.38;92.65
81812;BME280;71243;51.848;5.768;2024-03-22T02:27:38;102000.34;;;12.33;92.70
81812;BME280;71243;51.848;5.768;2024-03-22T02:30:04;101991.03;;;12.39;92.59
81812;BME280;71243;51.848;5.768;2024-03-22T02:32:29;101997.31;;;12.38;92.95
81812;BME280;71243;51.848;5.768;2024-03-22T02:34:55;101986.31;;;12.42;92.72
81812;BME280;71243;51.848;5.768;2024-03-22T02:37:20;101983.78;;;12.31;93.03
81812;BME280;71243;51.848;5.768;2024-03-22T02:39:45;101975.09;;;12.29;93.54
81812;BME280;71243;51.848;5.768;2024-03-22T02:42:10;101972.91;;;12.34;93.25
81812;BME280;71243;51.848;5.768;2024-03-22T02:44:36;101977.75;;;12.29;93.64
81812;BME280;71243;51.848;5.768;2024-03-22T02:47:01;101970.53;;;12.31;93.66
81812;BME280;71243;51.848;5.768;2024-03-22T02:49:26;101972.63;;;12.37;93.10
81812;BME280;71243;51.848;5.768;2024-03-22T02:51:51;101974.31;;;12.38;93.38
81812;BME280;71243;51.848;5.768;2024-03-22T02:54:16;101961.75;;;12.40;92.90
81812;BME280;71243;51.848;5.768;2024-03-22T02:56:42;101970.81;;;12.38;93.14
81812;BME280;71243;51.848;5.768;2024-03-22T02:59:07;101959.00;;;12.42;92.62
81812;BME280;71243;51.848;5.768;2024-03-22T03:01:32;101945.53;;;12.34;93.43
81812;BME280;71243;51.848;5.768;2024-03-22T03:03:57;101942.75;;;12.35;93.44
81812;BME280;71243;51.848;5.768;2024-03-22T03:06:23;101935.34;;;12.29;94.04
81812;BME280;71243;51.848;5.768;2024-03-22T03:08:48;101932.56;;;12.31;93.69
81812;BME280;71243;51.848;5.768;2024-03-22T03:11:14;101933.53;;;12.30;93.63
81812;BME280;71243;51.848;5.768;2024-03-22T03:13:39;101935.09;;;12.32;93.74
81812;BME280;71243;51.848;5.768;2024-03-22T03:16:05;101938.72;;;12.31;93.77
81812;BME280;71243;51.848;5.768;2024-03-22T03:18:30;101930.22;;;12.37;93.36
81812;BME280;71243;51.848;5.768;2024-03-22T03:20:55;101930.19;;;12.28;93.83
81812;BME280;71243;51.848;5.768;2024-03-22T03:23:20;101915.13;;;12.28;93.98
81812;BME280;71243;51.848;5.768;2024-03-22T03:25:46;101912.88;;;12.24;93.87
81812;BME280;71243;51.848;5.768;2024-03-22T03:28:11;101904.00;;;12.34;93.71
81812;BME280;71243;51.848;5.768;2024-03-22T03:30:36;101894.63;;;12.30;94.14
81812;BME280;71243;51.848;5.768;2024-03-22T03:33:01;101891.25;;;12.28;93.97
81812;BME280;71243;51.848;5.768;2024-03-22T03:35:27;101891.69;;;12.24;94.19
81812;BME280;71243;51.848;5.768;2024-03-22T03:37:52;101887.47;;;12.21;94.33
81812;BME280;71243;51.848;5.768;2024-03-22T03:40:18;101889.03;;;12.33;93.66
81812;BME280;71243;51.848;5.768;2024-03-22T03:42:43;101894.19;;;12.25;94.23
81812;BME280;71243;51.848;5.768;2024-03-22T03:45:08;101893.31;;;12.15;94.91
81812;BME280;71243;51.848;5.768;2024-03-22T03:47:33;101895.84;;;12.17;94.62
81812;BME280;71243;51.848;5.768;2024-03-22T03:49:59;101889.97;;;12.23;94.24
81812;BME280;71243;51.848;5.768;2024-03-22T03:52:24;101887.47;;;12.21;94.12
81812;BME280;71243;51.848;5.768;2024-03-22T03:54:49;101889.53;;;12.18;94.50
81812;BME280;71243;51.848;5.768;2024-03-22T03:57:14;101882.59;;;12.26;94.42
81812;BME280;71243;51.848;5.768;2024-03-22T03:59:40;101885.50;;;12.13;94.71
81812;BME280;71243;51.848;5.768;2024-03-22T04:02:05;101874.63;;;12.17;94.64
81812;BME280;71243;51.848;5.768;2024-03-22T04:04:30;101881.22;;;12.22;94.52
81812;BME280;71243;51.848;5.768;2024-03-22T04:06:55;101873.94;;;12.14;94.61
81812;BME280;71243;51.848;5.768;2024-03-22T04:09:20;101872.00;;;12.17;94.24
81812;BME280;71243;51.848;5.768;2024-03-22T04:11:46;101864.31;;;12.13;94.02
81812;BME280;71243;51.848;5.768;2024-03-22T04:14:11;101855.66;;;12.11;94.75
81812;BME280;71243;51.848;5.768;2024-03-22T04:16:36;101856.47;;;12.12;94.59
81812;BME280;71243;51.848;5.768;2024-03-22T04:19:01;101852.44;;;12.08;94.33
81812;BME280;71243;51.848;5.768;2024-03-22T04:24:10;101858.66;;;11.97;94.20
81812;BME280;71243;51.848;5.768;2024-03-22T04:26:35;101869.28;;;12.07;93.48
81812;BME280;71243;51.848;5.768;2024-03-22T04:29:00;101863.16;;;12.06;92.74
81812;BME280;71243;51.848;5.768;2024-03-22T04:31:26;101868.34;;;12.08;92.63
81812;BME280;71243;51.848;5.768;2024-03-22T04:33:51;101861.34;;;12.07;92.18
81812;BME280;71243;51.848;5.768;2024-03-22T04:36:16;101862.75;;;12.11;91.94
81812;BME280;71243;51.848;5.768;2024-03-22T04:38:41;101859.94;;;12.03;92.12
81812;BME280;71243;51.848;5.768;2024-03-22T04:41:07;101861.09;;;12.10;91.93
81812;BME280;71243;51.848;5.768;2024-03-22T04:43:32;101861.34;;;12.07;92.15
81812;BME280;71243;51.848;5.768;2024-03-22T04:45:57;101862.59;;;12.03;92.39
81812;BME280;71243;51.848;5.768;2024-03-22T04:48:23;101854.50;;;12.04;92.54
81812;BME280;71243;51.848;5.768;2024-03-22T04:50:50;101857.03;;;12.06;92.58
81812;BME280;71243;51.848;5.768;2024-03-22T04:53:19;101853.38;;;11.97;93.23
81812;BME280;71243;51.848;5.768;2024-03-22T04:55:45;101848.06;;;11.97;92.89
81812;BME280;71243;51.848;5.768;2024-03-22T04:58:20;101852.22;;;11.90;92.73
81812;BME280;71243;51.848;5.768;2024-03-22T05:00:56;101841.00;;;11.77;93.22
81812;BME280;71243;51.848;5.768;2024-03-22T05:03:21;101844.50;;;11.87;92.74
81812;BME280;71243;51.848;5.768;2024-03-22T05:05:47;101839.13;;;11.89;92.73
81812;BME280;71243;51.848;5.768;2024-03-22T05:08:12;101839.78;;;11.91;92.69
81812;BME280;71243;51.848;5.768;2024-03-22T05:10:37;101842.06;;;11.95;92.37
81812;BME280;71243;51.848;5.768;2024-03-22T05:13:03;101841.28;;;11.84;92.79
81812;BME280;71243;51.848;5.768;2024-03-22T05:15:28;101844.44;;;11.98;92.04
81812;BME280;71243;51.848;5.768;2024-03-22T05:17:55;101840.50;;;11.93;92.61
81812;BME280;71243;51.848;5.768;2024-03-22T05:20:21;101837.16;;;11.91;93.12
81812;BME280;71243;51.848;5.768;2024-03-22T05:22:47;101827.69;;;11.98;92.77
81812;BME280;71243;51.848;5.768;2024-03-22T05:25:12;101827.69;;;11.98;92.84
81812;BME280;71243;51.848;5.768;2024-03-22T05:27:38;101827.84;;;11.96;92.81
81812;BME280;71243;51.848;5.768;2024-03-22T05:30:03;101828.41;;;12.00;92.82
81812;BME280;71243;51.848;5.768;2024-03-22T05:32:28;101832.03;;;11.99;92.49
81812;BME280;71243;51.848;5.768;2024-03-22T05:34:54;101831.19;;;11.98;92.14
81812;BME280;71243;51.848;5.768;2024-03-22T05:37:19;101830.63;;;11.95;91.90
81812;BME280;71243;51.848;5.768;2024-03-22T05:39:44;101827.69;;;11.98;91.70
81812;BME280;71243;51.848;5.768;2024-03-22T05:42:09;101829.34;;;11.89;91.87
81812;BME280;71243;51.848;5.768;2024-03-22T05:44:35;101834.63;;;11.89;91.15
81812;BME280;71243;51.848;5.768;2024-03-22T05:47:00;101834.28;;;11.73;90.77
81812;BME280;71243;51.848;5.768;2024-03-22T05:49:25;101830.97;;;11.81;90.01
81812;BME280;71243;51.848;5.768;2024-03-22T05:51:51;101837.25;;;11.80;89.50
81812;BME280;71243;51.848;5.768;2024-03-22T05:54:16;101832.53;;;11.83;89.00
81812;BME280;71243;51.848;5.768;2024-03-22T05:56:41;101836.00;;;11.84;88.70
81812;BME280;71243;51.848;5.768;2024-03-22T05:59:06;101852.47;;;11.87;88.43
81812;BME280;71243;51.848;5.768;2024-03-22T06:01:32;101838.97;;;11.90;87.75
81812;BME280;71243;51.848;5.768;2024-03-22T06:03:57;101833.25;;;11.85;87.66
81812;BME280;71243;51.848;5.768;2024-03-22T06:06:22;101842.00;;;11.86;87.97
81812;BME280;71243;51.848;5.768;2024-03-22T06:08:48;101834.63;;;11.89;87.73
81812;BME280;71243;51.848;5.768;2024-03-22T06:11:13;101826.47;;;11.72;87.41
81812;BME280;71243;51.848;5.768;2024-03-22T06:13:38;101829.44;;;11.78;87.17
81812;BME280;71243;51.848;5.768;2024-03-22T06:16:04;101830.41;;;11.77;86.76
81812;BME280;71243;51.848;5.768;2024-03-22T06:18:29;101830.31;;;11.88;86.36
81812;BME280;71243;51.848;5.768;2024-03-22T06:20:55;101833.31;;;11.74;86.23
81812;BME280;71243;51.848;5.768;2024-03-22T06:23:21;101827.19;;;11.74;86.35
81812;BME280;71243;51.848;5.768;2024-03-22T06:25:53;101826.16;;;11.65;86.29
81812;BME280;71243;51.848;5.768;2024-03-22T06:28:19;101821.56;;;11.67;86.35
81812;BME280;71243;51.848;5.768;2024-03-22T06:30:44;101821.16;;;11.72;86.44
81812;BME280;71243;51.848;5.768;2024-03-22T06:33:09;101817.81;;;11.70;86.30
81812;BME280;71243;51.848;5.768;2024-03-22T06:35:34;101812.00;;;11.76;86.50
81812;BME280;71243;51.848;5.768;2024-03-22T06:38:00;101820.94;;;11.75;86.22
81812;BME280;71243;51.848;5.768;2024-03-22T06:40:25;101813.09;;;11.73;86.02
81812;BME280;71243;51.848;5.768;2024-03-22T06:42:50;101813.41;;;11.80;85.58
81812;BME280;71243;51.848;5.768;2024-03-22T06:45:15;101803.91;;;11.68;85.95
81812;BME280;71243;51.848;5.768;2024-03-22T06:47:40;101811.00;;;11.67;85.71
81812;BME280;71243;51.848;5.768;2024-03-22T06:50:06;101814.72;;;11.65;85.76
81812;BME280;71243;51.848;5.768;2024-03-22T06:52:31;101810.28;;;11.65;85.51
81812;BME280;71243;51.848;5.768;2024-03-22T06:54:56;101814.78;;;11.74;85.63
81812;BME280;71243;51.848;5.768;2024-03-22T06:57:21;101812.44;;;11.81;85.53
81812;BME280;71243;51.848;5.768;2024-03-22T06:59:47;101799.34;;;11.79;85.44
81812;BME280;71243;51.848;5.768;2024-03-22T07:02:12;101810.19;;;11.76;85.55
81812;BME280;71243;51.848;5.768;2024-03-22T07:04:37;101806.63;;;11.87;85.45
81812;BME280;71243;51.848;5.768;2024-03-22T07:07:02;101798.94;;;11.84;85.48
81812;BME280;71243;51.848;5.768;2024-03-22T07:09:28;101804.84;;;11.97;85.25
81812;BME280;71243;51.848;5.768;2024-03-22T07:11:53;101811.50;;;11.91;85.52
81812;BME280;71243;51.848;5.768;2024-03-22T07:14:18;101825.19;;;11.96;85.16
81812;BME280;71243;51.848;5.768;2024-03-22T07:16:43;101819.72;;;11.88;84.97
81812;BME280;71243;51.848;5.768;2024-03-22T07:19:08;101812.78;;;11.97;84.68
81812;BME280;71243;51.848;5.768;2024-03-22T07:21:34;101814.72;;;11.95;84.54
81812;BME280;71243;51.848;5.768;2024-03-22T07:23:59;101815.88;;;12.02;85.09
81812;BME280;71243;51.848;5.768;2024-03-22T07:26:24;101810.63;;;12.11;84.67
81812;BME280;71243;51.848;5.768;2024-03-22T07:28:49;101811.06;;;12.17;85.15
81812;BME280;71243;51.848;5.768;2024-03-22T07:31:14;101809.69;;;12.22;84.70
81812;BME280;71243;51.848;5.768;2024-03-22T07:33:40;101820.84;;;12.26;84.67
81812;BME280;71243;51.848;5.768;2024-03-22T07:36:06;101817.78;;;12.30;84.30
81812;BME280;71243;51.848;5.768;2024-03-22T07:38:31;101811.53;;;12.31;83.60
81812;BME280;71243;51.848;5.768;2024-03-22T07:40:57;101817.06;;;12.28;83.96
81812;BME280;71243;51.848;5.768;2024-03-22T07:43:22;101807.59;;;12.26;83.84
81812;BME280;71243;51.848;5.768;2024-03-22T07:45:47;101815.25;;;12.29;83.71
81812;BME280;71243;51.848;5.768;2024-03-22T07:48:13;101809.69;;;12.22;83.32
81812;BME280;71243;51.848;5.768;2024-03-22T07:50:38;101815.00;;;12.32;83.13
81812;BME280;71243;51.848;5.768;2024-03-22T07:53:03;101809.41;;;12.25;83.49
81812;BME280;71243;51.848;5.768;2024-03-22T07:55:28;101812.75;;;12.37;83.25
81812;BME280;71243;51.848;5.768;2024-03-22T07:57:54;101813.47;;;12.39;83.05
81812;BME280;71243;51.848;5.768;2024-03-22T08:00:19;101814.16;;;12.31;83.57
81812;BME280;71243;51.848;5.768;2024-03-22T08:02:44;101806.75;;;12.25;83.00
81812;BME280;71243;51.848;5.768;2024-03-22T08:05:09;101806.75;;;12.25;82.86
81812;BME280;71243;51.848;5.768;2024-03-22T08:07:35;101813.31;;;12.40;83.06
81812;BME280;71243;51.848;5.768;2024-03-22T08:10:00;101808.88;;;12.31;83.57
81812;BME280;71243;51.848;5.768;2024-03-22T08:12:25;101812.38;;;12.41;83.16
81812;BME280;71243;51.848;5.768;2024-03-22T08:14:51;101814.88;;;12.43;83.61
81812;BME280;71243;51.848;5.768;2024-03-22T08:17:16;101806.94;;;12.43;82.95
81812;BME280;71243;51.848;5.768;2024-03-22T08:19:41;101809.97;;;12.29;82.57
81812;BME280;71243;51.848;5.768;2024-03-22T08:22:06;101814.41;;;12.28;83.18
81812;BME280;71243;51.848;5.768;2024-03-22T08:24:32;101804.09;;;12.25;83.56
81812;BME280;71243;51.848;5.768;2024-03-22T08:26:57;101806.78;;;12.35;83.39
81812;BME280;71243;51.848;5.768;2024-03-22T08:29:22;101810.69;;;12.40;83.80
81812;BME280;71243;51.848;5.768;2024-03-22T08:31:47;101802.88;;;12.39;83.99
81812;BME280;71243;51.848;5.768;2024-03-22T08:34:12;101796.75;;;12.38;83.54
81812;BME280;71243;51.848;5.768;2024-03-22T08:36:38;101801.34;;;12.36;83.16
81812;BME280;71243;51.848;5.768;2024-03-22T08:39:03;101803.16;;;12.36;83.75
81812;BME280;71243;51.848;5.768;2024-03-22T08:41:28;101798.13;;;12.42;83.41
81812;BME280;71243;51.848;5.768;2024-03-22T08:43:53;101794.06;;;12.29;83.80
81812;BME280;71243;51.848;5.768;2024-03-22T08:46:19;101794.22;;;12.37;83.03
81812;BME280;71243;51.848;5.768;2024-03-22T08:48:44;101783.50;;;12.38;83.60
81812;BME280;71243;51.848;5.768;2024-03-22T08:51:09;101791.44;;;12.38;83.57
81812;BME280;71243;51.848;5.768;2024-03-22T08:53:34;101791.03;;;12.43;83.47
81812;BME280;71243;51.848;5.768;2024-03-22T08:55:59;101791.59;;;12.46;83.53
81812;BME280;71243;51.848;5.768;2024-03-22T08:58:25;101791.31;;;12.40;83.67
81812;BME280;71243;51.848;5.768;2024-03-22T09:00:50;101791.03;;;12.43;83.75
81812;BME280;71243;51.848;5.768;2024-03-22T09:03:15;101795.47;;;12.42;83.62
81812;BME280;71243;51.848;5.768;2024-03-22T09:05:41;101788.06;;;12.27;83.74
81812;BME280;71243;51.848;5.768;2024-03-22T09:08:06;101789.19;;;12.34;83.62
81812;BME280;71243;51.848;5.768;2024-03-22T09:10:31;101790.19;;;12.33;83.47
81812;BME280;71243;51.848;5.768;2024-03-22T09:12:56;101787.25;;;12.36;83.88
81812;BME280;71243;51.848;5.768;2024-03-22T09:15:22;101791.00;;;12.33;83.86
81812;BME280;71243;51.848;5.768;2024-03-22T09:17:47;101790.16;;;12.23;84.28
81812;BME280;71243;51.848;5.768;2024-03-22T09:20:12;101784.31;;;12.29;83.98
81812;BME280;71243;51.848;5.768;2024-03-22T09:22:38;101787.91;;;12.28;84.18
81812;BME280;71243;51.848;5.768;2024-03-22T09:25:03;101780.09;;;12.27;84.10
81812;BME280;71243;51.848;5.768;2024-03-22T09:27:28;101771.59;;;12.23;84.16
81812;BME280;71243;51.848;5.768;2024-03-22T09:29:54;101780.78;;;12.09;84.48
81812;BME280;71243;51.848;5.768;2024-03-22T09:32:19;101769.09;;;12.22;84.31
81812;BME280;71243;51.848;5.768;2024-03-22T09:34:44;101774.41;;;12.31;83.98
81812;BME280;71243;51.848;5.768;2024-03-22T09:37:09;101772.59;;;12.32;84.16
81812;BME280;71243;51.848;5.768;2024-03-22T09:39:35;101767.72;;;12.37;84.02
81812;BME280;71243;51.848;5.768;2024-03-22T09:42:00;101761.84;;;12.33;83.90
81812;BME280;71243;51.848;5.768;2024-03-22T09:44:30;101767.59;;;12.38;83.57
81812;BME280;71243;51.848;5.768;2024-03-22T09:46:58;101752.66;;;12.28;84.17
81812;BME280;71243;51.848;5.768;2024-03-22T09:49:24;101758.50;;;12.22;84.42
81812;BME280;71243;51.848;5.768;2024-03-22T09:51:51;101755.69;;;12.23;84.41
81812;BME280;71243;51.848;5.768;2024-03-22T09:54:16;101750.56;;;12.31;83.90
81812;BME280;71243;51.848;5.768;2024-03-22T09:56:42;101760.47;;;12.29;83.66
81812;BME280;71243;51.848;5.768;2024-03-22T09:59:08;101757.69;;;12.31;83.89
81812;BME280;71243;51.848;5.768;2024-03-22T10:01:38;101755.00;;;12.21;83.49
81812;BME280;71243;51.848;5.768;2024-03-22T10:04:04;101756.25;;;12.27;83.39
81812;BME280;71243;51.848;5.768;2024-03-22T10:06:30;101754.03;;;12.32;83.87
81812;BME280;71243;51.848;5.768;2024-03-22T10:08:58;101752.22;;;12.32;83.43
81812;BME280;71243;51.848;5.768;2024-03-22T10:11:26;101759.63;;;12.29;83.81
81812;BME280;71243;51.848;5.768;2024-03-22T10:13:51;101758.06;;;12.26;83.61
81812;BME280;71243;51.848;5.768;2024-03-22T10:16:16;101749.72;;;12.31;83.60
81812;BME280;71243;51.848;5.768;2024-03-22T10:18:42;101761.00;;;12.23;83.99
81812;BME280;71243;51.848;5.768;2024-03-22T10:21:07;101758.78;;;12.28;84.22
81812;BME280;71243;51.848;5.768;2024-03-22T10:23:32;101757.53;;;12.32;84.02
81812;BME280;71243;51.848;5.768;2024-03-22T10:25:59;101761.31;;;12.39;83.92
81812;BME280;71243;51.848;5.768;2024-03-22T10:28:25;101741.88;;;12.20;84.34
81812;BME280;71243;51.848;5.768;2024-03-22T10:30:51;101751.25;;;12.24;84.59
81812;BME280;71243;51.848;5.768;2024-03-22T10:33:18;101751.94;;;12.26;84.86
81812;BME280;71243;51.848;5.768;2024-03-22T10:35:44;101744.97;;;12.25;85.60
81812;BME280;71243;51.848;5.768;2024-03-22T10:38:09;101753.91;;;12.33;86.08
81812;BME280;71243;51.848;5.768;2024-03-22T10:40:36;101753.47;;;12.19;87.55
81812;BME280;71243;51.848;5.768;2024-03-22T10:43:01;101758.78;;;12.19;87.90
81812;BME280;71243;51.848;5.768;2024-03-22T10:45:26;101759.91;;;12.26;87.89
81812;BME280;71243;51.848;5.768;2024-03-22T10:47:53;101761.81;;;12.14;89.03
81812;BME280;71243;51.848;5.768;2024-03-22T10:50:22;101761.94;;;12.03;89.92
81812;BME280;71243;51.848;5.768;2024-03-22T10:52:51;101758.03;;;11.97;90.72
81812;BME280;71243;51.848;5.768;2024-03-22T10:55:40;101764.59;;;12.03;91.21
81812;BME280;71243;51.848;5.768;2024-03-22T10:58:07;101756.31;;;11.96;92.58
81812;BME280;71243;51.848;5.768;2024-03-22T11:00:34;101755.22;;;11.99;92.40
81812;BME280;71243;51.848;5.768;2024-03-22T11:03:02;101750.88;;;11.98;92.67
81812;BME280;71243;51.848;5.768;2024-03-22T11:05:27;101746.16;;;12.01;92.72
81812;BME280;71243;51.848;5.768;2024-03-22T11:08:05;101746.47;;;12.08;92.66
81812;BME280;71243;51.848;5.768;2024-03-22T11:10:33;101747.16;;;12.00;93.04
81812;BME280;71243;51.848;5.768;2024-03-22T11:13:06;101745.72;;;11.96;93.58
81812;BME280;71243;51.848;5.768;2024-03-22T11:15:31;101745.59;;;11.88;94.12
81812;BME280;71243;51.848;5.768;2024-03-22T11:17:57;101747.25;;;11.89;94.25
81812;BME280;71243;51.848;5.768;2024-03-22T11:20:22;101744.25;;;11.73;95.54
81812;BME280;71243;51.848;5.768;2024-03-22T11:22:48;101744.97;;;11.75;95.73
81812;BME280;71243;51.848;5.768;2024-03-22T11:25:13;101746.69;;;11.86;95.06
81812;BME280;71243;51.848;5.768;2024-03-22T11:27:38;101741.78;;;11.81;96.06
81812;BME280;71243;51.848;5.768;2024-03-22T11:30:04;101731.19;;;11.81;96.01
81812;BME280;71243;51.848;5.768;2024-03-22T11:32:30;101734.38;;;11.75;96.50
81812;BME280;71243;51.848;5.768;2024-03-22T11:34:55;101735.78;;;11.79;96.47
81812;BME280;71243;51.848;5.768;2024-03-22T11:37:20;101725.78;;;11.83;95.92
81812;BME280;71243;51.848;5.768;2024-03-22T11:39:45;101729.97;;;11.85;96.55
81812;BME280;71243;51.848;5.768;2024-03-22T11:42:11;101730.22;;;11.73;97.00
81812;BME280;71243;51.848;5.768;2024-03-22T11:44:37;101726.75;;;11.61;97.49
81812;BME280;71243;51.848;5.768;2024-03-22T11:47:03;101724.06;;;11.72;97.23
81812;BME280;71243;51.848;5.768;2024-03-22T11:49:29;101719.03;;;11.69;97.76
81812;BME280;71243;51.848;5.768;2024-03-22T11:51:56;101717.50;;;11.67;98.24
81812;BME280;71243;51.848;5.768;2024-03-22T11:54:21;101730.72;;;11.67;98.10
81812;BME280;71243;51.848;5.768;2024-03-22T11:56:46;101709.44;;;11.48;99.02
81812;BME280;71243;51.848;5.768;2024-03-22T11:59:11;101715.59;;;11.58;98.75
81812;BME280;71243;51.848;5.768;2024-03-22T12:01:37;101712.91;;;11.69;98.70
81812;BME280;71243;51.848;5.768;2024-03-22T12:04:02;101704.44;;;11.75;98.46
81812;BME280;71243;51.848;5.768;2024-03-22T12:06:27;101703.19;;;11.79;98.32
81812;BME280;71243;51.848;5.768;2024-03-22T12:08:52;101706.19;;;11.65;99.41
81812;BME280;71243;51.848;5.768;2024-03-22T12:11:18;101703.16;;;11.69;98.67
81812;BME280;71243;51.848;5.768;2024-03-22T12:13:43;101703.31;;;11.68;99.15
81812;BME280;71243;51.848;5.768;2024-03-22T12:16:08;101699.81;;;11.67;99.37
81812;BME280;71243;51.848;5.768;2024-03-22T12:18:33;101698.78;;;11.59;99.18
81812;BME280;71243;51.848;5.768;2024-03-22T12:20:59;101684.88;;;11.66;99.39
81812;BME280;71243;51.848;5.768;2024-03-22T12:23:25;101684.78;;;11.77;99.00
81812;BME280;71243;51.848;5.768;2024-03-22T12:25:51;101680.72;;;11.73;98.80
81812;BME280;71243;51.848;5.768;2024-03-22T12:28:17;101681.59;;;11.83;98.32
81812;BME280;71243;51.848;5.768;2024-03-22T12:30:43;101674.47;;;11.84;98.45
81812;BME280;71243;51.848;5.768;2024-03-22T12:33:08;101671.81;;;11.84;98.48
81812;BME280;71243;51.848;5.768;2024-03-22T12:35:34;101667.81;;;11.89;97.87
81812;BME280;71243;51.848;5.768;2024-03-22T12:37:59;101667.81;;;11.89;98.05
81812;BME280;71243;51.848;5.768;2024-03-22T12:40:24;101656.25;;;11.90;98.60
81812;BME280;71243;51.848;5.768;2024-03-22T12:42:49;101660.69;;;11.90;99.02
81812;BME280;71243;51.848;5.768;2024-03-22T12:45:15;101648.88;;;11.94;99.08
81812;BME280;71243;51.848;5.768;2024-03-22T12:47:40;101650.81;;;12.01;98.42
81812;BME280;71243;51.848;5.768;2024-03-22T12:50:05;101655.56;;;12.07;98.40
81812;BME280;71243;51.848;5.768;2024-03-22T12:52:31;101640.66;;;12.06;98.45